FW4154 Weather Reports


Display with metric or nautical units.
time (UTC)temp
F
wind
direction
speed
MPH
gust
MPH
rain 1hr
in
rain 24hr
in
rain mn
in
humidity
%
barometer
mb
20200711201421 67 184 10.0 13.0 0.00 0.00 0.00 74 1005.3
20200711200904 67 208 9.0 13.0 0.00 0.00 0.00 74 1005.2
20200711195914 67 197 8.0 11.0 0.00 0.00 0.00 75 1005.2
20200711194927 67 198 8.0 14.0 0.00 0.00 0.00 73 1005.2
20200711194421 67 360 10.0 14.0 0.00 0.00 0.00 72 1005.1
20200711193920 67 360 11.0 14.0 0.00 0.00 0.00 75 1005.1
20200711193412 67 204 9.0 13.0 0.00 0.00 0.00 73 1005.3
20200711192420 66 209 4.0 10.0 0.00 0.00 0.00 73 1005.4
20200711191912 66 192 3.0 9.0 0.00 0.00 0.00 73 1005.2
20200711190917 66 194 6.0 9.0 0.00 0.00 0.00 75 1005.0
20200711185914 66 207 6.0 14.0 0.00 0.00 0.00 75 1005.0
20200711184919 65 192 5.0 9.0 0.00 0.00 0.00 76 1005.3
20200711183922 65 209 8.0 10.0 0.00 0.00 0.00 77 1005.5
20200711183417 65 225 6.0 9.0 0.00 0.00 0.00 76 1005.4
20200711182418 64 254 9.0 12.0 0.00 0.00 0.00 76 1005.0
20200711181421 65 239 7.0 11.0 0.00 0.00 0.00 76 1005.0
20200711180416 64 209 6.0 9.0 0.00 0.00 0.00 77 1005.2
20200711175417 64 254 4.0 9.0 0.00 0.00 0.00 80 1005.0
20200711174908 64 195 6.0 10.0 0.00 0.00 0.00 81 1005.2
20200711173923 64 215 4.0 7.0 0.00 0.00 0.00 81 1005.3
20200711173416 64 202 5.0 7.0 0.00 0.00 0.00 82 1005.3
20200711172909 63 225 5.0 7.0 0.00 0.00 0.00 82 1005.4
20200711171928 63 214 3.0 7.0 0.00 0.00 0.00 81 1005.1
20200711170921 63 298 1.0 3.0 0.00 0.00 0.00 80 1005.2
20200711170411 63 296 2.0 3.0 0.00 0.00 0.00 81 1005.2
20200711165419 61 244 1.0 4.0 0.00 0.00 0.00 83 1005.3
20200711164916 61 244 0.0 4.0 0.00 0.00 0.00 82 1005.4
20200711163908 62 360 4.0 8.0 0.00 0.00 0.00 84 1005.4
20200711162926 61 360 4.0 5.0 0.00 0.00 0.00 85 1005.2
20200711161414 61 360 6.0 9.0 0.00 0.00 0.00 85 1005.1
20200711160910 60 360 6.0 9.0 0.00 0.00 0.00 86 1005.0
20200711155934 60 360 6.0 9.0 0.00 0.00 0.00 86 1005.0
20200711155417 60 360 5.0 8.0 0.00 0.00 0.00 85 1005.2
20200711154412 59 272 1.0 3.0 0.00 0.00 0.00 82 1005.5
20200711153424 59 197 1.0 3.0 0.00 0.00 0.00 81 1005.4
20200711152915 59 154 0.0 2.0 0.00 0.00 0.00 81 1005.5
20200711152402 59 104 0.0 2.0 0.00 0.00 0.00 80 1005.6
20200711151411 58 104 1.0 4.0 0.00 0.00 0.00 81 1005.6
20200711150902 58 94 1.0 4.0 0.00 0.00 0.00 83 1005.6
20200711145919 58 106 2.0 4.0 0.00 0.00 0.00 84 1005.7
20200711144914 57 84 2.0 4.0 0.00 0.00 0.00 84 1005.7
20200711144414 57 81 2.0 4.0 0.00 0.00 0.00 83 1005.7
20200711143908 57 87 2.0 4.0 0.00 0.00 0.00 84 1005.7
20200711142923 56 86 1.0 3.0 0.00 0.00 0.00 86 1005.8
20200711141919 56 84 1.0 3.0 0.00 0.00 0.00 87 1005.7
20200711141406 56 77 1.0 3.0 0.00 0.00 0.00 87 1005.7
20200711140905 56 68 0.0 3.0 0.00 0.00 0.00 88 1005.7
20200711135907 55 360 1.0 3.0 0.00 0.00 0.00 90 1005.6
20200711134920 54 360 2.0 4.0 0.00 0.00 0.00 89 1005.8
20200711134416 54 360 2.0 3.0 0.00 0.00 0.00 89 1005.7
20200711133437 54 78 0.0 3.0 0.00 0.00 0.00 91 1005.5
20200711132445 53 78 1.0 3.0 0.00 0.00 0.00 90 1005.4
20200711131434 53 360 0.0 2.0 0.00 0.00 0.00 90 1005.2
20200711130920 52 36 1.0 2.0 0.00 0.00 0.00 91 1005.2
20200711125940 52 36 1.0 2.0 0.00 0.00 0.00 90 1005.1
20200711124940 52 360 0.0 2.0 0.00 0.00 0.00 91 1005.0
20200711124426 52 360 1.0 2.0 0.00 0.00 0.00 92 1005.0
20200711122942 52 360 1.0 2.0 0.00 0.00 0.00 91 1004.9
20200711122437 52 360 1.0 4.0 0.00 0.00 0.00 91 1004.9
20200711121923 52 360 2.0 4.0 0.00 0.00 0.00 91 1004.9
20200711120927 53 360 1.0 3.0 0.00 0.00 0.00 91 1005.0
20200711115933 53 360 0.0 2.0 0.00 0.00 0.00 91 1005.0
20200711115428 53 20 0.0 2.0 0.00 0.00 0.00 91 1005.0
20200711114922 53 20 1.0 2.0 0.00 0.00 0.00 92 1004.9
20200711113939 52 19 1.0 2.0 0.00 0.00 0.00 91 1005.0
20200711112946 52 17 1.0 2.0 0.00 0.00 0.00 91 1005.0
20200711111937 52 18 0.0 2.0 0.00 0.00 0.00 90 1004.9
20200711111429 53 20 0.0 2.0 0.00 0.00 0.00 91 1004.9
20200711110438 53 17 1.0 2.0 0.00 0.00 0.00 90 1005.0
20200711105933 53 19 1.0 3.0 0.00 0.00 0.00 91 1005.0
20200711104938 53 360 1.0 3.0 0.00 0.00 0.00 90 1005.1
20200711104435 53 360 1.0 3.0 0.00 0.00 0.00 91 1005.0
20200711103930 53 20 2.0 4.0 0.00 0.00 0.00 90 1005.0
20200711102949 53 360 1.0 4.0 0.00 0.00 0.00 90 1004.9
20200711101938 53 15 1.0 3.0 0.00 0.00 0.00 89 1005.0
20200711101432 53 19 1.0 4.0 0.00 0.00 0.00 89 1005.0
20200711100924 53 19 2.0 4.0 0.00 0.00 0.00 89 1005.0
20200711095934 53 19 2.0 3.0 0.00 0.00 0.00 89 1005.1
20200711094932 54 19 2.0 4.0 0.00 0.00 0.00 90 1005.3
20200711094430 54 19 2.0 4.0 0.00 0.00 0.00 89 1005.5
20200711093923 54 17 2.0 4.0 0.00 0.00 0.00 89 1005.6
20200711092926 54 13 1.0 3.0 0.00 0.00 0.00 88 1005.7
20200711091933 55 13 1.0 2.0 0.00 0.00 0.00 88 1005.7
20200711091431 55 360 1.0 3.0 0.00 0.00 0.00 88 1005.7
20200711090437 55 11 1.0 3.0 0.00 0.00 0.00 87 1005.7
20200711085926 55 11 1.0 3.0 0.00 0.00 0.00 88 1005.7
20200711085419 55 26 1.0 3.0 0.00 0.00 0.00 89 1005.7
20200711084422 55 26 1.0 3.0 0.00 0.00 0.00 87 1005.7
20200711083440 56 32 1.0 3.0 0.00 0.00 0.00 87 1005.8
20200711082917 56 34 1.0 3.0 0.00 0.00 0.00 87 1005.9
20200711081936 56 34 1.0 3.0 0.00 0.00 0.00 87 1006.0
20200711080920 56 67 1.0 3.0 0.00 0.00 0.00 86 1006.0
20200711075937 57 82 1.0 4.0 0.00 0.00 0.00 86 1006.2
20200711074932 56 263 0.0 0.0 0.00 0.00 0.00 83 1006.1
20200711074426 56 263 0.0 0.0 0.00 0.00 0.00 83 1006.2
20200711073428 57 263 0.0 0.0 0.00 0.00 0.00 83 1006.2
20200711072925 57 263 0.0 0.0 0.00 0.00 0.00 83 1006.2
20200711072424 57 263 0.0 1.0 0.00 0.00 0.00 83 1006.1
20200711071921 57 263 0.0 3.0 0.00 0.00 0.00 83 1006.1
20200711070937 57 263 0.0 2.0 0.00 0.00 0.00 83 1005.9
20200711065953 57 273 1.0 3.0 0.00 0.00 0.00 82 1005.7
20200711065428 57 273 1.0 3.0 0.00 0.00 0.00 82 1005.7
20200711064927 57 273 1.0 3.0 0.00 0.00 0.00 82 1005.7
20200711063925 58 280 0.0 2.0 0.00 0.00 0.00 81 1005.7
20200711062927 58 284 0.0 2.0 0.00 0.00 0.00 80 1005.8
20200711062424 58 309 0.0 2.0 0.00 0.00 0.00 80 1005.8
20200711061913 59 313 0.0 2.0 0.00 0.00 0.00 79 1005.9
20200711060938 59 317 0.0 2.0 0.00 0.00 0.00 77 1005.9
20200711055936 60 344 0.0 1.0 0.00 0.00 0.00 76 1006.1
20200711055429 60 360 0.0 2.0 0.00 0.00 0.00 78 1006.1
20200711054928 60 32 0.0 2.0 0.00 0.00 0.00 77 1006.1
20200711053947 61 360 0.0 1.0 0.00 0.00 0.00 80 1006.2
20200711053425 61 26 0.0 1.0 0.00 0.00 0.00 77 1006.2
20200711052919 61 360 0.0 3.0 0.00 0.00 0.00 77 1006.2
20200711051932 61 360 0.0 4.0 0.00 0.00 0.00 76 1006.1
20200711051422 61 360 2.0 4.0 0.00 0.00 0.00 75 1006.1
20200711050441 62 13 1.0 4.0 0.00 0.00 0.00 75 1006.0
20200711045446 62 38 1.0 4.0 0.00 0.00 0.00 74 1006.2
20200711043926 63 61 2.0 4.0 0.00 0.00 0.00 73 1006.2
20200711042934 63 360 1.0 5.0 0.00 0.00 0.00 74 1005.9
20200711042424 63 348 1.0 2.0 0.00 0.00 0.00 75 1006.0
20200711041924 63 336 0.0 1.0 0.00 0.00 0.00 75 1006.0
20200711040933 63 336 1.0 3.0 0.00 0.00 0.00 73 1005.9
20200711040432 63 334 1.0 4.0 0.00 0.00 0.00 74 1006.0
20200711035433 64 360 1.0 4.0 0.00 0.00 0.00 73 1005.9
20200711034431 64 360 0.0 3.0 0.00 0.00 0.00 72 1005.8
20200711033432 65 360 1.0 4.0 0.00 0.00 0.00 71 1005.7
20200711032448 66 360 1.0 5.0 0.00 0.00 0.00 72 1005.6
20200711031926 66 360 3.0 5.0 0.00 0.00 0.00 70 1005.7
20200711030920 66 355 2.0 5.0 0.00 0.00 0.00 68 1006.0
20200711025939 67 337 3.0 5.0 0.00 0.00 0.00 69 1006.1
20200711025432 67 313 3.0 5.0 0.00 0.00 0.00 67 1006.2
20200711024439 68 340 1.0 6.0 0.00 0.00 0.00 65 1006.1
20200711023933 68 316 3.0 5.0 0.00 0.00 0.00 66 1006.2
20200711023429 68 342 2.0 6.0 0.00 0.00 0.00 65 1006.4
20200711022426 69 316 2.0 6.0 0.00 0.00 0.00 65 1006.2
20200711021433 69 355 3.0 6.0 0.00 0.00 0.00 66 1005.8
20200711020440 69 343 6.0 12.0 0.00 0.00 0.00 64 1005.6
20200711014933 70 333 8.0 12.0 0.00 0.00 0.00 64 1005.2
20200711013926 70 273 7.0 12.0 0.00 0.00 0.00 63 1005.4
20200711013426 71 283 7.0 12.0 0.00 0.00 0.00 64 1006.1
20200711012433 70 241 2.0 4.0 0.00 0.00 0.00 61 1006.2
20200711011935 71 234 1.0 3.0 0.00 0.00 0.00 63 1006.4
20200711010936 71 234 0.0 3.0 0.00 0.00 0.00 62 1006.6
20200711005936 71 234 2.0 4.0 0.00 0.00 0.00 66 1006.9
20200711005421 71 199 1.0 3.0 0.00 0.00 0.00 63 1007.0
20200711004437 71 198 3.0 5.0 0.00 0.00 0.00 63 1006.9
20200711003425 71 181 2.0 6.0 0.00 0.00 0.00 62 1006.8
20200711002925 71 176 2.0 7.0 0.00 0.00 0.00 63 1006.5
20200711001939 71 212 2.0 4.0 0.00 0.00 0.00 62 1007.7
20200711001437 71 210 0.0 5.0 0.00 0.00 0.00 58 1007.6
20200711000437 70 206 5.0 8.0 0.00 0.00 0.00 63 1007.4
20200710235934 70 173 3.0 8.0 0.00 0.00 0.00 61 1007.6
20200710234943 70 188 4.0 8.0 0.00 0.00 0.00 67 1007.6
20200710234430 70 198 5.0 9.0 0.00 0.00 0.00 62 1007.6
20200710233438 70 172 2.0 9.0 0.00 0.00 0.00 61 1008.0
20200710232935 70 169 5.0 9.0 0.00 0.00 0.00 63 1008.0
20200710232424 70 213 6.0 8.0 0.00 0.00 0.00 67 1008.3
20200710231431 70 198 7.0 9.0 0.00 0.00 0.00 66 1008.7
20200710230435 70 185 5.0 9.0 0.00 0.00 0.00 65 1009.4
20200710225928 69 252 2.0 10.0 0.00 0.00 0.00 63 1009.6
20200710225420 69 225 6.0 10.0 0.00 0.00 0.00 63 1009.2
20200710224431 69 189 4.0 9.0 0.00 0.00 0.00 64 1008.1
20200710223956 69 202 2.0 8.0 0.00 0.00 0.00 61 1007.4
20200710222943 69 198 6.0 10.0 0.00 0.00 0.00 65 1007.6
20200710221938 69 196 4.0 7.0 0.00 0.00 0.00 68 1008.2
20200710221425 68 246 3.0 5.0 0.00 0.00 0.00 65 1008.6
20200710220442 68 202 4.0 9.0 0.00 0.00 0.00 69 1008.1
20200710215444 68 211 5.0 12.0 0.00 0.00 0.00 67 1008.4
20200710214931 68 250 9.0 11.0 0.00 0.00 0.00 68 1009.1
20200710213949 68 219 8.0 12.0 0.00 0.00 0.00 69 1010.4
20200710213434 68 182 6.0 10.0 0.00 0.00 0.00 69 1010.3
20200710212923 67 205 6.0 9.0 0.00 0.00 0.00 72 1009.5
20200710211934 67 170 6.0 10.0 0.00 0.00 0.00 70 1008.7
20200710211426 67 200 6.0 11.0 0.00 0.00 0.00 68 1008.9
20200710205944 66 246 4.0 9.0 0.00 0.00 0.00 68 1009.0
20200710204942 66 246 1.0 8.0 0.00 0.00 0.00 67 1009.0
20200710203942 66 228 3.0 7.0 0.00 0.00 0.00 69 1009.1
20200710203426 66 229 3.0 9.0 0.00 0.00 0.00 68 1009.1
20200710202427 65 243 3.0 9.0 0.00 0.00 0.00 70 1009.0